sensor_id;sensor_type;location;lat;lon;timestamp;pressure;altitude;pressure_sealevel;temperature;humidity
43707;BME280;61348;53.392;-6.248;2023-03-31T00:00:53;97813.69;;;9.64;100.00
43707;BME280;61348;53.392;-6.248;2023-03-31T00:03:23;97811.34;;;9.63;100.00
43707;BME280;61348;53.392;-6.248;2023-03-31T00:05:54;97808.22;;;9.61;100.00
43707;BME280;61348;53.392;-6.248;2023-03-31T00:08:21;97808.97;;;9.61;100.00
43707;BME280;61348;53.392;-6.248;2023-03-31T00:10:48;97804.69;;;9.57;100.00
43707;BME280;61348;53.392;-6.248;2023-03-31T00:13:15;97800.75;;;9.54;100.00
43707;BME280;61348;53.392;-6.248;2023-03-31T00:15:42;97791.69;;;9.54;100.00
43707;BME280;61348;53.392;-6.248;2023-03-31T00:18:09;97785.38;;;9.53;100.00
43707;BME280;61348;53.392;-6.248;2023-03-31T00:20:35;97778.69;;;9.51;100.00
43707;BME280;61348;53.392;-6.248;2023-03-31T00:23:04;97777.50;;;9.52;100.00
43707;BME280;61348;53.392;-6.248;2023-03-31T00:25:39;97779.13;;;9.49;100.00
43707;BME280;61348;53.392;-6.248;2023-03-31T00:28:07;97774.41;;;9.46;100.00
43707;BME280;61348;53.392;-6.248;2023-03-31T00:30:34;97779.16;;;9.46;100.00
43707;BME280;61348;53.392;-6.248;2023-03-31T00:33:00;97776.81;;;9.44;100.00
43707;BME280;61348;53.392;-6.248;2023-03-31T00:35:27;97764.97;;;9.44;100.00
43707;BME280;61348;53.392;-6.248;2023-03-31T00:37:54;97766.56;;;9.45;100.00
43707;BME280;61348;53.392;-6.248;2023-03-31T00:40:23;97760.25;;;9.44;100.00
43707;BME280;61348;53.392;-6.248;2023-03-31T00:42:50;97763.81;;;9.41;100.00
43707;BME280;61348;53.392;-6.248;2023-03-31T00:45:22;97761.06;;;9.38;100.00
43707;BME280;61348;53.392;-6.248;2023-03-31T00:48:02;97762.28;;;9.37;100.00
43707;BME280;61348;53.392;-6.248;2023-03-31T00:50:32;97756.38;;;9.35;100.00
43707;BME280;61348;53.392;-6.248;2023-03-31T00:53:11;97753.25;;;9.33;100.00
43707;BME280;61348;53.392;-6.248;2023-03-31T00:55:43;97755.63;;;9.31;100.00
43707;BME280;61348;53.392;-6.248;2023-03-31T00:58:11;97755.63;;;9.31;100.00
43707;BME280;61348;53.392;-6.248;2023-03-31T01:00:41;97755.63;;;9.31;100.00
43707;BME280;61348;53.392;-6.248;2023-03-31T01:03:08;97758.41;;;9.31;100.00
43707;BME280;61348;53.392;-6.248;2023-03-31T01:05:43;97757.22;;;9.32;100.00
43707;BME280;61348;53.392;-6.248;2023-03-31T01:08:13;97752.06;;;9.34;100.00
43707;BME280;61348;53.392;-6.248;2023-03-31T01:10:43;97741.38;;;9.36;100.00
43707;BME280;61348;53.392;-6.248;2023-03-31T01:13:12;97743.78;;;9.34;100.00
43707;BME280;61348;53.392;-6.248;2023-03-31T01:15:41;97736.31;;;9.31;100.00
43707;BME280;61348;53.392;-6.248;2023-03-31T01:18:08;97731.97;;;9.30;100.00
43707;BME280;61348;53.392;-6.248;2023-03-31T01:23:40;97727.22;;;9.34;100.00
43707;BME280;61348;53.392;-6.248;2023-03-31T01:26:35;97711.47;;;9.31;100.00
43707;BME280;61348;53.392;-6.248;2023-03-31T01:35:31;97710.28;;;9.32;100.00
43707;BME280;61348;53.392;-6.248;2023-03-31T01:47:05;97701.25;;;9.28;100.00
43707;BME280;61348;53.392;-6.248;2023-03-31T01:52:36;97706.03;;;9.24;100.00
43707;BME280;61348;53.392;-6.248;2023-03-31T01:55:24;97698.94;;;9.23;100.00
43707;BME280;61348;53.392;-6.248;2023-03-31T01:58:11;97711.56;;;9.20;100.00
43707;BME280;61348;53.392;-6.248;2023-03-31T02:00:51;97708.81;;;9.20;100.00
43707;BME280;61348;53.392;-6.248;2023-03-31T02:03:28;97707.22;;;9.19;100.00
43707;BME280;61348;53.392;-6.248;2023-03-31T02:06:04;97700.94;;;9.18;100.00
43707;BME280;61348;53.392;-6.248;2023-03-31T02:08:42;97694.22;;;9.19;100.00
43707;BME280;61348;53.392;-6.248;2023-03-31T02:11:11;97698.94;;;9.19;100.00
43707;BME280;61348;53.392;-6.248;2023-03-31T02:13:40;97698.19;;;9.18;100.00
43707;BME280;61348;53.392;-6.248;2023-03-31T02:16:12;97699.75;;;9.19;100.00
43707;BME280;61348;53.392;-6.248;2023-03-31T02:18:46;97689.50;;;9.20;100.00
43707;BME280;61348;53.392;-6.248;2023-03-31T02:21:14;97696.59;;;9.21;100.00
43707;BME280;61348;53.392;-6.248;2023-03-31T02:23:43;97697.34;;;9.22;100.00
43707;BME280;61348;53.392;-6.248;2023-03-31T02:26:17;97687.53;;;9.21;100.00
43707;BME280;61348;53.392;-6.248;2023-03-31T02:28:46;97689.50;;;9.20;100.00
43707;BME280;61348;53.392;-6.248;2023-03-31T02:31:17;97693.44;;;9.19;100.00
43707;BME280;61348;53.392;-6.248;2023-03-31T02:33:47;97698.56;;;9.21;100.00
43707;BME280;61348;53.392;-6.248;2023-03-31T02:36:15;97692.69;;;9.18;100.00
43707;BME280;61348;53.392;-6.248;2023-03-31T02:38:46;97696.63;;;9.17;100.00
43707;BME280;61348;53.392;-6.248;2023-03-31T02:41:15;97695.03;;;9.16;100.00
43707;BME280;61348;53.392;-6.248;2023-03-31T02:43:42;97695.03;;;9.16;100.00
43707;BME280;61348;53.392;-6.248;2023-03-31T02:46:09;97685.56;;;9.17;100.00
43707;BME280;61348;53.392;-6.248;2023-03-31T02:48:44;97690.31;;;9.17;100.00
43707;BME280;61348;53.392;-6.248;2023-03-31T03:09:52;97687.66;;;9.06;100.00
43707;BME280;61348;53.392;-6.248;2023-03-31T03:15:13;97693.16;;;9.06;100.00
43707;BME280;61348;53.392;-6.248;2023-03-31T03:17:52;97677.78;;;9.05;100.00
43707;BME280;61348;53.392;-6.248;2023-03-31T03:20:20;97693.53;;;9.08;100.00
43707;BME280;61348;53.392;-6.248;2023-03-31T03:22:47;97684.09;;;9.06;100.00
43707;BME280;61348;53.392;-6.248;2023-03-31T03:25:15;97684.53;;;9.04;100.00
43707;BME280;61348;53.392;-6.248;2023-03-31T03:27:43;97692.44;;;9.02;100.00
43707;BME280;61348;53.392;-6.248;2023-03-31T03:30:11;97693.63;;;9.01;100.00
43707;BME280;61348;53.392;-6.248;2023-03-31T03:32:38;97684.91;;;9.03;100.00
43707;BME280;61348;53.392;-6.248;2023-03-31T03:35:07;97689.69;;;9.02;100.00
43707;BME280;61348;53.392;-6.248;2023-03-31T03:37:34;97692.81;;;9.01;100.00
43707;BME280;61348;53.392;-6.248;2023-03-31T03:40:02;97689.69;;;9.02;100.00
43707;BME280;61348;53.392;-6.248;2023-03-31T03:42:32;97688.47;;;9.03;100.00
43707;BME280;61348;53.392;-6.248;2023-03-31T03:44:59;97687.28;;;9.04;100.00
43707;BME280;61348;53.392;-6.248;2023-03-31T03:47:27;97690.41;;;9.06;100.00
43707;BME280;61348;53.392;-6.248;2023-03-31T03:49:54;97691.59;;;9.05;100.00
43707;BME280;61348;53.392;-6.248;2023-03-31T03:52:21;97696.75;;;9.03;100.00
43707;BME280;61348;53.392;-6.248;2023-03-31T03:54:47;97702.25;;;9.03;100.00
43707;BME280;61348;53.392;-6.248;2023-03-31T03:57:15;97702.25;;;9.03;100.00
43707;BME280;61348;53.392;-6.248;2023-03-31T03:59:42;97700.28;;;9.04;100.00
43707;BME280;61348;53.392;-6.248;2023-03-31T04:02:09;97698.72;;;9.03;100.00
43707;BME280;61348;53.392;-6.248;2023-03-31T04:04:36;97704.22;;;9.03;100.00
43707;BME280;61348;53.392;-6.248;2023-03-31T04:07:03;97706.22;;;9.02;100.00
43707;BME280;61348;53.392;-6.248;2023-03-31T04:09:30;97699.50;;;9.03;100.00
43707;BME280;61348;53.392;-6.248;2023-03-31T04:11:57;97703.06;;;9.00;100.00
43707;BME280;61348;53.392;-6.248;2023-03-31T04:14:24;97709.38;;;9.01;100.00
43707;BME280;61348;53.392;-6.248;2023-03-31T04:16:51;97707.84;;;9.00;100.00
43707;BME280;61348;53.392;-6.248;2023-03-31T04:19:22;97711.78;;;8.99;100.00
43707;BME280;61348;53.392;-6.248;2023-03-31T04:21:52;97715.31;;;8.99;100.00
43707;BME280;61348;53.392;-6.248;2023-03-31T04:24:25;97716.13;;;9.00;100.00
43707;BME280;61348;53.392;-6.248;2023-03-31T04:26:56;97717.28;;;9.02;100.00
43707;BME280;61348;53.392;-6.248;2023-03-31T04:29:23;97720.41;;;9.04;100.00
43707;BME280;61348;53.392;-6.248;2023-03-31T04:31:53;97719.59;;;9.07;100.00
43707;BME280;61348;53.392;-6.248;2023-03-31T04:34:24;97720.31;;;9.11;100.00
43707;BME280;61348;53.392;-6.248;2023-03-31T04:37:01;97732.94;;;9.12;100.00
43707;BME280;61348;53.392;-6.248;2023-03-31T04:39:29;97729.38;;;9.15;100.00
43707;BME280;61348;53.392;-6.248;2023-03-31T04:41:57;97737.66;;;9.15;100.00
43707;BME280;61348;53.392;-6.248;2023-03-31T04:44:24;97744.31;;;9.18;100.00
43707;BME280;61348;53.392;-6.248;2023-03-31T04:46:52;97751.00;;;9.21;100.00
43707;BME280;61348;53.392;-6.248;2023-03-31T04:49:19;97742.66;;;9.24;100.00
43707;BME280;61348;53.392;-6.248;2023-03-31T04:51:45;97746.22;;;9.25;100.00
43707;BME280;61348;53.392;-6.248;2023-03-31T04:54:12;97752.53;;;9.25;100.00
43707;BME280;61348;53.392;-6.248;2023-03-31T04:56:39;97758.84;;;9.26;100.00
43707;BME280;61348;53.392;-6.248;2023-03-31T04:59:06;97758.03;;;9.29;100.00
43707;BME280;61348;53.392;-6.248;2023-03-31T05:01:34;97753.28;;;9.29;100.00
43707;BME280;61348;53.392;-6.248;2023-03-31T05:04:03;97750.94;;;9.28;100.00
43707;BME280;61348;53.392;-6.248;2023-03-31T05:06:31;97759.22;;;9.28;100.00
43707;BME280;61348;53.392;-6.248;2023-03-31T05:08:58;97757.63;;;9.27;100.00
43707;BME280;61348;53.392;-6.248;2023-03-31T05:11:24;97763.56;;;9.25;100.00
43707;BME280;61348;53.392;-6.248;2023-03-31T05:13:51;97772.28;;;9.24;100.00
43707;BME280;61348;53.392;-6.248;2023-03-31T05:16:19;97773.44;;;9.23;100.00
43707;BME280;61348;53.392;-6.248;2023-03-31T05:18:46;97776.22;;;9.23;100.00
43707;BME280;61348;53.392;-6.248;2023-03-31T05:21:19;97773.03;;;9.24;100.00
43707;BME280;61348;53.392;-6.248;2023-03-31T05:23:47;97776.19;;;9.26;100.00
43707;BME280;61348;53.392;-6.248;2023-03-31T05:26:14;97771.84;;;9.25;100.00
43707;BME280;61348;53.392;-6.248;2023-03-31T05:28:42;97777.00;;;9.23;100.00
43707;BME280;61348;53.392;-6.248;2023-03-31T05:31:09;97782.53;;;9.23;100.00
43707;BME280;61348;53.392;-6.248;2023-03-31T05:33:38;97784.50;;;9.23;100.00
43707;BME280;61348;53.392;-6.248;2023-03-31T05:36:10;97793.56;;;9.23;100.00
43707;BME280;61348;53.392;-6.248;2023-03-31T05:38:38;97802.25;;;9.22;100.00
43707;BME280;61348;53.392;-6.248;2023-03-31T05:41:05;97809.34;;;9.23;100.00
43707;BME280;61348;53.392;-6.248;2023-03-31T05:43:36;97812.09;;;9.23;100.00
43707;BME280;61348;53.392;-6.248;2023-03-31T05:46:03;97807.75;;;9.22;100.00
43707;BME280;61348;53.392;-6.248;2023-03-31T05:48:31;97823.94;;;9.19;100.00
43707;BME280;61348;53.392;-6.248;2023-03-31T05:50:58;97824.31;;;9.22;100.00
43707;BME280;61348;53.392;-6.248;2023-03-31T05:53:26;97831.44;;;9.23;100.00
43707;BME280;61348;53.392;-6.248;2023-03-31T05:56:00;97846.00;;;9.23;100.00
43707;BME280;61348;53.392;-6.248;2023-03-31T05:58:28;97845.22;;;9.23;100.00
43707;BME280;61348;53.392;-6.248;2023-03-31T06:01:06;97853.50;;;9.23;100.00
43707;BME280;61348;53.392;-6.248;2023-03-31T06:03:35;97856.63;;;9.25;100.00
43707;BME280;61348;53.392;-6.248;2023-03-31T06:06:03;97860.59;;;9.24;100.00
43707;BME280;61348;53.392;-6.248;2023-03-31T06:08:34;97864.91;;;9.25;100.00
43707;BME280;61348;53.392;-6.248;2023-03-31T06:11:12;97860.19;;;9.25;100.00
43707;BME280;61348;53.392;-6.248;2023-03-31T06:13:40;97864.13;;;9.28;100.00
43707;BME280;61348;53.392;-6.248;2023-03-31T06:16:06;97865.28;;;9.27;100.00
43707;BME280;61348;53.392;-6.248;2023-03-31T06:18:34;97862.53;;;9.27;100.00
43707;BME280;61348;53.392;-6.248;2023-03-31T06:21:02;97869.63;;;9.28;100.00
43707;BME280;61348;53.392;-6.248;2023-03-31T06:23:30;97875.16;;;9.28;100.00
43707;BME280;61348;53.392;-6.248;2023-03-31T06:26:02;97877.91;;;9.28;100.00
43707;BME280;61348;53.392;-6.248;2023-03-31T06:28:29;97886.19;;;9.31;100.00
43707;BME280;61348;53.392;-6.248;2023-03-31T06:31:04;97894.47;;;9.31;100.00
43707;BME280;61348;53.392;-6.248;2023-03-31T06:33:33;97892.09;;;9.30;100.00
43707;BME280;61348;53.392;-6.248;2023-03-31T06:36:00;97911.03;;;9.31;100.00
43707;BME280;61348;53.392;-6.248;2023-03-31T06:38:30;97906.28;;;9.32;100.00
43707;BME280;61348;53.392;-6.248;2023-03-31T06:40:57;97915.34;;;9.32;100.00
43707;BME280;61348;53.392;-6.248;2023-03-31T06:43:23;97917.34;;;9.32;100.00
43707;BME280;61348;53.392;-6.248;2023-03-31T06:45:54;97915.75;;;9.34;100.00
43707;BME280;61348;53.392;-6.248;2023-03-31T06:48:22;97927.53;;;9.35;100.00
43707;BME280;61348;53.392;-6.248;2023-03-31T06:50:52;97933.84;;;9.39;100.00
43707;BME280;61348;53.392;-6.248;2023-03-31T06:53:21;97940.94;;;9.40;100.00
43707;BME280;61348;53.392;-6.248;2023-03-31T06:55:48;97937.78;;;9.41;100.00
43707;BME280;61348;53.392;-6.248;2023-03-31T06:58:15;97943.28;;;9.41;100.00
43707;BME280;61348;53.392;-6.248;2023-03-31T07:00:42;97954.69;;;9.47;100.00
43707;BME280;61348;53.392;-6.248;2023-03-31T07:03:11;97958.25;;;9.47;100.00
43707;BME280;61348;53.392;-6.248;2023-03-31T07:05:38;97958.63;;;9.49;100.00
43707;BME280;61348;53.392;-6.248;2023-03-31T07:08:05;97947.94;;;9.51;100.00
43707;BME280;61348;53.392;-6.248;2023-03-31T07:10:32;97961.38;;;9.53;100.00
43707;BME280;61348;53.392;-6.248;2023-03-31T07:12:59;97966.88;;;9.53;100.00
43707;BME280;61348;53.392;-6.248;2023-03-31T07:15:25;97970.84;;;9.52;100.00
43707;BME280;61348;53.392;-6.248;2023-03-31T07:17:56;97981.50;;;9.50;100.00
43707;BME280;61348;53.392;-6.248;2023-03-31T07:20:28;97983.47;;;9.49;100.00
43707;BME280;61348;53.392;-6.248;2023-03-31T07:22:56;97995.69;;;9.52;100.00
43707;BME280;61348;53.392;-6.248;2023-03-31T07:25:22;98001.19;;;9.55;100.00
43707;BME280;61348;53.392;-6.248;2023-03-31T07:27:49;98006.31;;;9.57;100.00
43707;BME280;61348;53.392;-6.248;2023-03-31T07:30:18;97997.59;;;9.58;100.00
43707;BME280;61348;53.392;-6.248;2023-03-31T07:32:46;98008.63;;;9.62;100.00
43707;BME280;61348;53.392;-6.248;2023-03-31T07:35:13;98009.00;;;9.67;100.00
43707;BME280;61348;53.392;-6.248;2023-03-31T07:37:42;98019.63;;;9.72;100.00
43707;BME280;61348;53.392;-6.248;2023-03-31T07:40:12;98022.00;;;9.74;100.00
43707;BME280;61348;53.392;-6.248;2023-03-31T07:42:41;98026.69;;;9.77;100.00
43707;BME280;61348;53.392;-6.248;2023-03-31T07:45:09;98033.38;;;9.79;100.00
43707;BME280;61348;53.392;-6.248;2023-03-31T07:47:36;98042.44;;;9.80;100.00
43707;BME280;61348;53.392;-6.248;2023-03-31T07:50:05;98041.66;;;9.79;100.00
43707;BME280;61348;53.392;-6.248;2023-03-31T07:52:32;98044.41;;;9.79;100.00
43707;BME280;61348;53.392;-6.248;2023-03-31T07:54:59;98042.44;;;9.80;100.00
43707;BME280;61348;53.392;-6.248;2023-03-31T07:57:26;98050.72;;;9.84;100.00
43707;BME280;61348;53.392;-6.248;2023-03-31T07:59:53;98060.19;;;9.86;100.00
43707;BME280;61348;53.392;-6.248;2023-03-31T08:02:20;98062.50;;;9.91;100.00
43707;BME280;61348;53.392;-6.248;2023-03-31T08:04:46;98066.44;;;9.94;100.00
43707;BME280;61348;53.392;-6.248;2023-03-31T08:07:14;98074.72;;;9.94;100.00
43707;BME280;61348;53.392;-6.248;2023-03-31T08:09:43;98073.94;;;9.93;100.00
43707;BME280;61348;53.392;-6.248;2023-03-31T08:12:11;98076.31;;;9.91;100.00
43707;BME280;61348;53.392;-6.248;2023-03-31T08:14:38;98084.25;;;9.89;100.00
43707;BME280;61348;53.392;-6.248;2023-03-31T08:17:08;98097.69;;;9.87;100.00
43707;BME280;61348;53.392;-6.248;2023-03-31T08:19:35;98102.00;;;9.88;100.00
43707;BME280;61348;53.392;-6.248;2023-03-31T08:22:02;98100.44;;;9.87;100.00
43707;BME280;61348;53.392;-6.248;2023-03-31T08:24:29;98111.09;;;9.85;100.00
43707;BME280;61348;53.392;-6.248;2023-03-31T08:26:56;98106.34;;;9.86;100.00
43707;BME280;61348;53.392;-6.248;2023-03-31T08:29:22;98111.09;;;9.85;100.00
43707;BME280;61348;53.392;-6.248;2023-03-31T08:31:49;98115.44;;;9.86;100.00
43707;BME280;61348;53.392;-6.248;2023-03-31T08:34:17;98120.19;;;9.86;100.00
43707;BME280;61348;53.392;-6.248;2023-03-31T08:36:44;98125.69;;;9.89;100.00
43707;BME280;61348;53.392;-6.248;2023-03-31T08:39:10;98125.69;;;9.89;100.00
43707;BME280;61348;53.392;-6.248;2023-03-31T08:42:00;98128.47;;;9.89;100.00
43707;BME280;61348;53.392;-6.248;2023-03-31T08:44:39;98130.00;;;9.90;100.00
43707;BME280;61348;53.392;-6.248;2023-03-31T08:47:13;98139.50;;;9.93;100.00
43707;BME280;61348;53.392;-6.248;2023-03-31T08:49:45;98147.38;;;9.98;100.00
43707;BME280;61348;53.392;-6.248;2023-03-31T08:52:18;98147.31;;;10.01;100.00
43707;BME280;61348;53.392;-6.248;2023-03-31T08:54:52;98146.50;;;10.04;100.00
43707;BME280;61348;53.392;-6.248;2023-03-31T08:57:29;98158.72;;;10.10;100.00
43707;BME280;61348;53.392;-6.248;2023-03-31T08:59:59;98156.75;;;10.14;100.00
43707;BME280;61348;53.392;-6.248;2023-03-31T09:08:32;98164.22;;;10.24;100.00
43707;BME280;61348;53.392;-6.248;2023-03-31T09:11:08;98170.53;;;10.21;100.00
43707;BME280;61348;53.392;-6.248;2023-03-31T09:16:14;98178.03;;;10.24;100.00
43707;BME280;61348;53.392;-6.248;2023-03-31T09:18:42;98179.56;;;10.29;100.00
43707;BME280;61348;53.392;-6.248;2023-03-31T09:21:29;98177.16;;;10.34;100.00
43707;BME280;61348;53.392;-6.248;2023-03-31T09:24:09;98188.59;;;10.40;100.00
43707;BME280;61348;53.392;-6.248;2023-03-31T09:26:41;98188.94;;;10.46;100.00
43707;BME280;61348;53.392;-6.248;2023-03-31T09:29:23;98195.25;;;10.46;100.00
43707;BME280;61348;53.392;-6.248;2023-03-31T09:32:16;98198.38;;;10.52;100.00
43707;BME280;61348;53.392;-6.248;2023-03-31T09:34:45;98206.22;;;10.57;100.00
43707;BME280;61348;53.392;-6.248;2023-03-31T09:37:12;98212.53;;;10.61;100.00
43707;BME280;61348;53.392;-6.248;2023-03-31T09:39:39;98208.97;;;10.64;100.00
43707;BME280;61348;53.392;-6.248;2023-03-31T09:42:09;98221.19;;;10.66;100.00
43707;BME280;61348;53.392;-6.248;2023-03-31T09:44:46;98220.41;;;10.66;100.00
43707;BME280;61348;53.392;-6.248;2023-03-31T09:47:16;98229.06;;;10.68;100.00
43707;BME280;61348;53.392;-6.248;2023-03-31T09:49:45;98227.47;;;10.70;100.00
43707;BME280;61348;53.392;-6.248;2023-03-31T09:52:30;98239.34;;;10.71;100.00
43707;BME280;61348;53.392;-6.248;2023-03-31T09:55:00;98237.75;;;10.70;100.00
43707;BME280;61348;53.392;-6.248;2023-03-31T09:57:34;98244.84;;;10.74;100.00
43707;BME280;61348;53.392;-6.248;2023-03-31T10:00:19;98248.75;;;10.80;100.00
43707;BME280;61348;53.392;-6.248;2023-03-31T10:13:41;98276.78;;;10.86;100.00
43707;BME280;61348;53.392;-6.248;2023-03-31T10:16:13;98275.63;;;10.83;100.00
43707;BME280;61348;53.392;-6.248;2023-03-31T10:18:42;98285.50;;;10.81;100.00
43707;BME280;61348;53.392;-6.248;2023-03-31T10:21:20;98286.72;;;10.80;100.00
43707;BME280;61348;53.392;-6.248;2023-03-31T10:23:49;98293.47;;;10.75;100.00
43707;BME280;61348;53.392;-6.248;2023-03-31T10:26:22;98295.47;;;10.75;100.00
43707;BME280;61348;53.392;-6.248;2023-03-31T10:28:50;98300.56;;;10.80;100.00
43707;BME280;61348;53.392;-6.248;2023-03-31T10:31:24;98311.19;;;10.85;100.00
43707;BME280;61348;53.392;-6.248;2023-03-31T10:33:52;98309.97;;;10.89;100.00
43707;BME280;61348;53.392;-6.248;2023-03-31T10:36:24;98316.66;;;10.95;100.00
43707;BME280;61348;53.392;-6.248;2023-03-31T10:38:52;98321.78;;;10.97;100.00
43707;BME280;61348;53.392;-6.248;2023-03-31T10:41:22;98319.81;;;10.97;100.00
43707;BME280;61348;53.392;-6.248;2023-03-31T10:43:54;98322.94;;;11.03;100.00
43707;BME280;61348;53.392;-6.248;2023-03-31T10:46:48;98329.63;;;11.06;100.00
43707;BME280;61348;53.392;-6.248;2023-03-31T10:51:54;98337.09;;;11.12;100.00
43707;BME280;61348;53.392;-6.248;2023-03-31T10:54:22;98340.22;;;11.18;100.00
43707;BME280;61348;53.392;-6.248;2023-03-31T10:57:00;98342.53;;;11.23;100.00
43707;BME280;61348;53.392;-6.248;2023-03-31T11:02:21;98341.72;;;11.26;100.00
43707;BME280;61348;53.392;-6.248;2023-03-31T11:05:20;98354.78;;;11.25;100.00
43707;BME280;61348;53.392;-6.248;2023-03-31T11:13:31;98360.81;;;11.13;100.00
43707;BME280;61348;53.392;-6.248;2023-03-31T11:19:17;98377.44;;;11.17;100.00
43707;BME280;61348;53.392;-6.248;2023-03-31T11:21:59;98378.25;;;11.14;100.00
43707;BME280;61348;53.392;-6.248;2023-03-31T11:35:12;98402.72;;;11.22;100.00
43707;BME280;61348;53.392;-6.248;2023-03-31T11:40:36;98415.63;;;11.39;100.00
43707;BME280;61348;53.392;-6.248;2023-03-31T11:46:12;98424.72;;;11.43;100.00
43707;BME280;61348;53.392;-6.248;2023-03-31T11:54:16;98440.91;;;11.48;100.00
43707;BME280;61348;53.392;-6.248;2023-03-31T11:56:45;98436.56;;;11.47;100.00
43707;BME280;61348;53.392;-6.248;2023-03-31T11:59:14;98452.81;;;11.42;100.00
43707;BME280;61348;53.392;-6.248;2023-03-31T12:04:37;98461.13;;;11.42;100.00
43707;BME280;61348;53.392;-6.248;2023-03-31T12:07:25;98461.13;;;11.45;100.00
43707;BME280;61348;53.392;-6.248;2023-03-31T12:10:11;98469.00;;;11.47;100.00
43707;BME280;61348;53.392;-6.248;2023-03-31T12:12:54;98469.78;;;11.51;100.00
43707;BME280;61348;53.392;-6.248;2023-03-31T12:15:32;98468.94;;;11.57;100.00
43707;BME280;61348;53.392;-6.248;2023-03-31T12:18:02;98476.38;;;11.68;100.00
43707;BME280;61348;53.392;-6.248;2023-03-31T12:20:36;98478.34;;;11.74;100.00
43707;BME280;61348;53.392;-6.248;2023-03-31T12:23:11;98477.53;;;11.81;100.00
43707;BME280;61348;53.392;-6.248;2023-03-31T12:25:47;98491.72;;;11.86;100.00
43707;BME280;61348;53.392;-6.248;2023-03-31T12:28:18;98485.41;;;11.86;100.00
43707;BME280;61348;53.392;-6.248;2023-03-31T12:30:46;98486.94;;;11.90;100.00
43707;BME280;61348;53.392;-6.248;2023-03-31T12:33:39;98496.41;;;11.96;100.00
43707;BME280;61348;53.392;-6.248;2023-03-31T12:36:21;98489.19;;;12.06;100.00
43707;BME280;61348;53.392;-6.248;2023-03-31T12:39:06;98498.59;;;12.15;100.00
43707;BME280;61348;53.392;-6.248;2023-03-31T12:47:03;98504.97;;;12.53;100.00
43707;BME280;61348;53.392;-6.248;2023-03-31T12:49:50;98503.69;;;12.61;100.00
43707;BME280;61348;53.392;-6.248;2023-03-31T13:03:53;98526.44;;;12.87;100.00
43707;BME280;61348;53.392;-6.248;2023-03-31T13:09:00;98533.09;;;12.93;100.00
43707;BME280;61348;53.392;-6.248;2023-03-31T13:16:37;98550.25;;;12.84;99.82
43707;BME280;61348;53.392;-6.248;2023-03-31T13:19:04;98544.81;;;12.73;99.71
43707;BME280;61348;53.392;-6.248;2023-03-31T13:21:51;98559.19;;;12.65;99.61
43707;BME280;61348;53.392;-6.248;2023-03-31T13:24:21;98558.41;;;12.64;99.84
43707;BME280;61348;53.392;-6.248;2023-03-31T13:26:50;98561.91;;;12.68;99.78
43707;BME280;61348;53.392;-6.248;2023-03-31T13:29:23;98565.47;;;12.72;99.64
43707;BME280;61348;53.392;-6.248;2023-03-31T13:50:48;98590.81;;;12.74;98.59
43707;BME280;61348;53.392;-6.248;2023-03-31T14:07:09;98614.41;;;12.97;97.47
43707;BME280;61348;53.392;-6.248;2023-03-31T14:09:43;98611.13;;;13.09;97.51
43707;BME280;61348;53.392;-6.248;2023-03-31T14:12:32;98623.03;;;13.09;96.71
43707;BME280;61348;53.392;-6.248;2023-03-31T14:14:59;98620.25;;;13.06;96.63
43707;BME280;61348;53.392;-6.248;2023-03-31T14:17:35;98625.44;;;13.04;96.48
43707;BME280;61348;53.392;-6.248;2023-03-31T14:20:30;98621.50;;;13.01;96.50
43707;BME280;61348;53.392;-6.248;2023-03-31T14:23:37;98630.28;;;12.96;96.33
43707;BME280;61348;53.392;-6.248;2023-03-31T14:27:05;98631.06;;;12.97;96.68
43707;BME280;61348;53.392;-6.248;2023-03-31T14:37:49;98655.75;;;12.88;96.12
43707;BME280;61348;53.392;-6.248;2023-03-31T14:40:17;98651.78;;;12.89;96.17
43707;BME280;61348;53.392;-6.248;2023-03-31T14:42:44;98660.03;;;12.96;95.84
43707;BME280;61348;53.392;-6.248;2023-03-31T14:47:41;98658.03;;;13.00;95.41
43707;BME280;61348;53.392;-6.248;2023-03-31T14:50:14;98669.13;;;13.00;95.20
43707;BME280;61348;53.392;-6.248;2023-03-31T14:52:49;98669.13;;;13.00;95.03
43707;BME280;61348;53.392;-6.248;2023-03-31T14:55:21;98671.88;;;13.07;95.18
43707;BME280;61348;53.392;-6.248;2023-03-31T14:57:55;98681.78;;;13.08;94.69
43707;BME280;61348;53.392;-6.248;2023-03-31T15:00:26;98674.19;;;13.12;94.96
43707;BME280;61348;53.392;-6.248;2023-03-31T15:02:57;98673.41;;;13.11;94.81
43707;BME280;61348;53.392;-6.248;2023-03-31T15:05:32;98683.72;;;13.11;94.64
43707;BME280;61348;53.392;-6.248;2023-03-31T15:08:02;98686.13;;;13.05;94.67
43707;BME280;61348;53.392;-6.248;2023-03-31T15:10:42;98689.69;;;13.06;94.69
43707;BME280;61348;53.392;-6.248;2023-03-31T15:13:51;98691.66;;;13.05;94.61
43707;BME280;61348;53.392;-6.248;2023-03-31T15:16:37;98691.34;;;13.00;94.44
43707;BME280;61348;53.392;-6.248;2023-03-31T15:19:20;98701.66;;;12.99;94.65
43707;BME280;61348;53.392;-6.248;2023-03-31T15:22:00;98701.69;;;12.96;94.52
43707;BME280;61348;53.392;-6.248;2023-03-31T15:24:28;98709.69;;;12.90;94.49
43707;BME280;61348;53.392;-6.248;2023-03-31T15:27:08;98708.13;;;12.89;94.72
43707;BME280;61348;53.392;-6.248;2023-03-31T15:29:50;98710.50;;;12.87;94.67
43707;BME280;61348;53.392;-6.248;2023-03-31T15:34:51;98718.47;;;12.81;94.53
43707;BME280;61348;53.392;-6.248;2023-03-31T15:37:30;98725.25;;;12.77;94.65
43707;BME280;61348;53.392;-6.248;2023-03-31T15:40:03;98732.84;;;12.73;94.70
43707;BME280;61348;53.392;-6.248;2023-03-31T15:42:34;98741.63;;;12.64;94.65
43707;BME280;61348;53.392;-6.248;2023-03-31T15:47:50;98748.84;;;12.51;94.62
43707;BME280;61348;53.392;-6.248;2023-03-31T15:50:21;98750.47;;;12.45;94.88
43707;BME280;61348;53.392;-6.248;2023-03-31T15:52:53;98752.09;;;12.39;94.81
43707;BME280;61348;53.392;-6.248;2023-03-31T15:55:39;98750.53;;;12.35;94.95
43707;BME280;61348;53.392;-6.248;2023-03-31T15:58:11;98751.31;;;12.35;95.53
43707;BME280;61348;53.392;-6.248;2023-03-31T16:00:46;98763.22;;;12.36;95.05
43707;BME280;61348;53.392;-6.248;2023-03-31T16:03:23;98762.00;;;12.37;95.27
43707;BME280;61348;53.392;-6.248;2023-03-31T16:05:59;98765.56;;;12.37;95.12